Tiempo atmosférico en la estación meteorológica de Somosierra, Madrid (1450 m.)



Fecha
DESCASC
Temp. máxima en grados centígrados (hora)
DESCASC
Temp. mínima en grados centígrados (hora)
DESCASC
Temp. media en grados centígrados
DESCASC
Racha de viento máxima en m/sg (hora)
DESCASC
Velocidad máxima media en intervalos de 10 minutos(hora)
DESCASC
Precipitaciones diarias en mm
DESCASC
Precipitaciones de 00:00 a 06:00 en mm
DESCASC
Precipitaciones de 06:00 a 12:00 en mm
DESCASC
Precipitaciones de 12:00 a 18:00 en mm
DESCASC
Precipitaciones de 18:00 a 24:00 en mm
DESCASC
10-08-2019 25.2 (17:50) 10.6 (00:00) 17.9 8.89 (18:20) 4.72 (18:30) 0 0 0 0 0
24-08-2019 29.5 (16:50) 13.5 (00:00) 21.5 6.94 (13:40) 3.61 (12:40) 0 0 0 0 0
23-08-2019 28.7 (17:30) 14 (00:00) 21.4 7.22 (15:40) 3.89 (09:50) 0 0 0 0 0
22-08-2019 27.5 (17:30) 10.5 (00:00) 19 6.94 (15:20) 3.33 (22:20) 0 0 0 0 0
21-08-2019 25.5 (18:50) 12.8 (00:00) 19.2 8.06 (15:30) 3.89 (11:30) 0 0 0 0 0
19-08-2019 25 (16:00) 12.6 (00:00) 18.8 6.67 (11:30) 4.17 (11:30) 0 0 0 0 0
18-08-2019 29.1 (16:50) 14.1 (00:00) 21.6 10.28 (18:20) 3.33 (18:30) 0 0 0 0 0
17-08-2019 31.5 (18:00) 15.3 (00:00) 23.4 10.28 (17:50) 4.72 (17:10) 0 0 0 0 0
16-08-2019 30.5 (18:30) 14.1 (00:00) 22.3 8.89 (15:20) 3.61 (15:40) 0 0 0 0 0
15-08-2019 28.8 (17:00) 15.2 (00:00) 22 7.5 (14:20) 2.5 (14:20) 0 0 0 0 0
14-08-2019 27.9 (17:10) 10.5 (00:00) 19.2 8.06 (17:20) 2.22 (14:30) 0 0 0 0 0
13-08-2019 23.2 (17:10) 7.2 (00:00) 15.2 7.5 (14:30) 2.5 (19:30) 0 0 0 0 0
12-08-2019 20.2 (18:00) 5.6 (00:00) 12.9 10 (13:20) 3.89 (09:40) 0 0 0 0 0
11-08-2019 22.8 (15:10) 10.5 (00:00) 16.6 9.72 (16:40) 4.17 (16:10) 0 0 0 0 0
26-07-2019 24.5 (16:10) 14 (00:00) 19.3 9.17 (18:00) 3.33 (16:40) 0 0 0 0 0
09-08-2019 24.9 (15:40) 13.2 (00:00) 19 11.11 (20:10) 4.72 (17:00) 5.8 0 0 0.2 5.6
07-08-2019 22.4 (12:40) 14.6 (00:00) 18.5 7.5 (15:50) 3.89 (15:50) 0.8 0 0 0.6 0.2
06-08-2019 29.5 (15:30) 14 (00:00) 21.8 7.78 (17:00) 3.89 (16:10) 0 0 0 0 0
05-08-2019 30.2 (17:50) 14.9 (00:00) 22.6 9.17 (15:30) 4.17 (16:50) 0 0 0 0 0
04-08-2019 30.2 (18:00) 15.1 (00:00) 22.7 9.72 (15:00) 4.44 (16:00) 0 0 0 0 0
03-08-2019 -- (--) -- (--) -- 9.72 (16:20) 3.89 (16:40) 0 0 0 0 0
02-08-2019 30.5 (16:50) 14.1 (00:00) 22.3 6.11 (16:00) 2.22 (16:20) 0 0 0 0 0
01-08-2019 34.2 (13:50) 14.5 (00:00) 24.4 10.28 (04:30) 5.83 (05:10) 0 0 0 0 0
31-07-2019 27 (18:10) 10.9 (00:00) 18.9 10.28 (16:20) 5.56 (16:40) 2.6 0 0 0 2.6
30-07-2019 24 (17:10) 6.3 (00:00) 15.2 6.67 (12:30) 2.22 (10:50) 0 0 0 0 0
29-07-2019 26 (16:30) 11.6 (00:00) 18.8 9.44 (15:20) 3.61 (16:20) 0 0 0 0 0
28-07-2019 24.7 (18:10) 5.8 (00:00) 15.3 7.78 (14:50) 3.06 (01:30) 0 0 0 0 0
27-07-2019 18.6 (18:10) 10.3 (00:00) 14.5 10.83 (16:40) 5 (13:10) 0 0 0 0 0
08-08-2019 27.3 (16:20) 14.1 (00:00) 20.7 9.72 (15:10) 5 (19:50) 0.2 0.2 0 0 0
20-08-2019 24.2 (17:20) 10.2 (00:00) 17.2 10.83 (01:50) 5 (02:00) 5.6 5.6 0 0 0

Gráficas

Temp. máximas Temp. mínimas Temp. medias Precipitaciones Rachas de viento máximas Velocidades máximas media en intervalos de 10 minutos

Datos horarios

Fecha y hora oficial Temperatura (ºC) Velocidad del viento (km/h) Dirección del viento Racha (km/h) Dirección de racha Precipitación (mm) Presión (hPa) Tendencia (hPa) Humedad (%)
2019-08-24 23:00:00 19.6 5 Sudeste 12 Sudeste 0 860.5 0.7 41
2019-08-24 22:00:00 20.6 5 Sur 14 Sur 0 860.2 0.1 39
2019-08-24 21:00:00 22.1 6 Sudeste 21 Sur 0 859.9 -0.7 37
2019-08-24 20:00:00 25.2 10 Sur 21 Sur 0 859.8 -0.9 34
2019-08-24 19:00:00 25.8 5 Sudoeste 19 Sur 0 860.1 -0.8 33
2019-08-24 18:00:00 27.2 3 Sudoeste 14 Este 0 860.6 -0.8 30
2019-08-24 17:00:00 27.8 6 Este 19 Este 0 860.7 -1.1 29
2019-08-24 16:00:00 28.4 5 Norte 22 Noroeste 0 860.9 -1.1 30
2019-08-24 15:00:00 26.1 4 Norte 23 Nordeste 0 861.4 -0.5 33
2019-08-24 14:00:00 26.8 2 Sudeste 25 Sudoeste 0 861.8 0 35
2019-08-24 13:00:00 25.1 10 Sur 21 Sur 0 862 0.4 42
2019-08-24 12:00:00 23.2 10 Sur 17 Sur 0 861.9 0.3 42
2019-08-24 11:00:00 21.6 7 Sur 14 Sur 0 861.8 0.4 48
2019-08-24 10:00:00 19.3 7 Sur 10 Sur 0 861.6 0 52
2019-08-24 09:00:00 15.7 7 Sur 8 Sur 0 861.6 0.4 59
2019-08-24 08:00:00 14 5 Sur 10 Sudeste 0 861.4 -0.1 63
2019-08-24 07:00:00 14.1 7 Sur 13 Sur 0 861.6 -0.2 63
2019-08-24 06:00:00 13.9 8 Sur 12 Sur 0 861.2 0.1 62
2019-08-24 05:00:00 14.6 7 Sur 17 Sur 0 861.5 0 55
2019-08-24 04:00:00 14.5 9 Sur 19 Sur 0 861.8 0.4 47
2019-08-24 03:00:00 15 2 Sudeste 5 Sudeste 0 861.1 -0.2 41
2019-08-24 02:00:00 15.2 3 Sudeste 9 Este 0 861.5 0.1 41
2019-08-24 01:00:00 16.5 3 Nordeste 7 Sudeste 0 861.4 0.3 43
2019-08-24 00:00:00 17.3 2 Este 13 Sudeste 0 861.3 0.8 39
2019-08-23 23:00:00 19 7 Sudeste 14 Sudeste 0 861.4 0.8 37
2019-08-23 22:00:00 19.4 8 Sudeste 13 Sudeste 0 861.1 0.3 36
2019-08-23 21:00:00 21.3 6 Sur 12 Sur 0 860.5 -0.3 34
2019-08-23 20:00:00 24.8 7 Sur 19 Sur 0 860.6 -0.7 30
2019-08-23 19:00:00 26.9 9 Sur 20 Sur 0 860.8 -0.7 27
2019-08-23 18:00:00 27.2 2 Este 21 Oeste 0 860.8 -1.5 26
2019-08-23 17:00:00 27.8 5 Sur 20 Sur 0 861.3 -1.2 26
2019-08-23 16:00:00 26.8 8 Sur 26 Sudoeste 0 861.5 -1.2 27
2019-08-23 15:00:00 25.8 11 Sudoeste 24 Sur 0 862.3 -0.5 30
2019-08-23 14:00:00 24 10 Sur 22 Sur 0 862.5 -0.3 36
2019-08-23 13:00:00 23.4 9 Sur 23 Sudoeste 0 862.7 0 42
2019-08-23 12:00:00 21.8 13 Sur 23 Sur 0 862.8 0.2 49
2019-08-23 11:00:00 19.9 13 Sur 24 Sur 0 862.8 0.2 53
2019-08-23 10:00:00 18.4 12 Sur 22 Sur 0 862.7 0.6 60
2019-08-23 09:00:00 16.1 8 Sudeste 20 Sudeste 0 862.6 0.5 71
2019-08-23 08:00:00 14.6 10 Sudeste 21 Sudeste 0 862.6 0.5 75
2019-08-23 07:00:00 14.6 9 Sudeste 18 Este 0 862.1 -0.3 68
2019-08-23 06:00:00 14.1 6 Sur 17 Sur 0 862.1 -0.2 53
2019-08-23 05:00:00 14.5 8 Sur 13 Sur 0 862.1 -0.1 52
2019-08-23 04:00:00 14.9 6 Sur 13 Sur 0 862.4 0.4 49
2019-08-23 03:00:00 16 6 Sur 12 Sur 0 862.3 0.3 42
2019-08-23 02:00:00 15.8 6 Sur 16 Este 0 862.2 0 36
2019-08-23 01:00:00 18.1 4 Este 17 Sudeste 0 862 0 32
2019-08-23 00:00:00 18.5 10 Sudeste 19 Sudeste 0 862 0.3 32
2019-08-22 23:00:00 18.9 10 Sudeste 18 Sudeste 0 862.2 0.8 30
2019-08-22 22:00:00 18.8 5 Sur 15 Sudeste 0 862 0.9 33
2019-08-22 21:00:00 20.7 3 Sur 7 Sur 0 861.7 0.1 28
2019-08-22 20:00:00 23.9 2 Noroeste 17 Nordeste 0 861.4 -0.1 26
2019-08-22 19:00:00 25.6 4 Norte 16 Noroeste 0 861.1 -1.1 24
2019-08-22 18:00:00 27 3 Noroeste 23 Norte 0 861.6 -0.8 24
2019-08-22 17:00:00 26.4 7 Norte 23 Norte 0 861.5 -1.3 24
2019-08-22 16:00:00 25.5 7 Norte 25 Norte 0 862.2 -1 25
2019-08-22 15:00:00 24.8 5 Noroeste 20 Norte 0 862.4 -0.5 25
2019-08-22 14:00:00 24 4 Noroeste 21 Norte 0 862.8 0.3 30
2019-08-22 13:00:00 22 8 Norte 23 Norte 0 863.2 0.6 33
2019-08-22 12:00:00 21.3 5 Norte 19 Nordeste 0 862.9 0.2 39
2019-08-22 11:00:00 18.7 7 Norte 17 Norte 0 862.5 0.5 61
2019-08-22 10:00:00 16.9 5 Norte 10 Norte 0 862.6 0.4 71
2019-08-22 09:00:00 14 0 Calma 7 Este 0 862.7 0.8 84
2019-08-22 08:00:00 11.1 0 Calma 4 Nordeste 0 862 0 93
2019-08-22 07:00:00 10.5 3 Sur 7 Sur 0 862.2 0.3 90
2019-08-22 06:00:00 11.4 5 Sur 8 Sur 0 861.9 -0.1 76
2019-08-22 05:00:00 11.6 0 Calma 5 Este 0 862 -0.3 76
2019-08-22 04:00:00 12 0 Calma 6 Sudeste 0 861.9 -0.5 80
2019-08-22 03:00:00 12.7 3 Sudeste 9 Sur 0 862 -0.7 83
2019-08-22 02:00:00 12.4 5 Sur 8 Sudeste 0 862.3 0 91
2019-08-22 01:00:00 13.8 6 Sur 12 Sur 0 862.4 0.8 89
2019-08-22 00:00:00 14.7 9 Sur 17 Sudeste 0 862.7 1.9 76
2019-08-21 23:00:00 15.6 5 Sur 17 Norte 0 862.3 2 55
2019-08-21 22:00:00 18 4 Norte 23 Norte 0 861.6 1.6 43
2019-08-21 21:00:00 19.4 5 Norte 22 Norte 0 860.8 0.7 40
2019-08-21 20:00:00 22.4 8 Norte 27 Noroeste 0 860.3 0 35
2019-08-21 19:00:00 24.2 9 Norte 24 Norte 0 860 -0.6 36
2019-08-21 18:00:00 24.4 3 Oeste 14 Sudoeste 0 860.1 -0.9 49
2019-08-21 17:00:00 21.1 5 Sur 18 Sur 0 860.3 -1.1 57
2019-08-21 16:00:00 21.1 10 Sur 29 Sur 0 860.6 -0.8 54
2019-08-21 15:00:00 23.2 6 Sur 23 Sudoeste 0 861 -0.8 52
2019-08-21 14:00:00 20.7 13 Sur 23 Sudoeste 0 861.4 -0.4 65
2019-08-21 13:00:00 20.8 12 Sur 26 Sudoeste 0 861.4 -0.3 63
2019-08-21 12:00:00 18.1 12 Sur 24 Sur 0 861.8 0.2 76
2019-08-21 11:00:00 16.4 13 Sur 22 Sur 0 861.8 0.6 84
2019-08-21 10:00:00 14.7 9 Sur 20 Sur 0 861.7 0.3 93
2019-08-21 09:00:00 14.2 8 Sur 17 Sur 0 861.6 0.1 89
2019-08-21 08:00:00 14 9 Sur 17 Sur 0 861.2 -0.3 89
2019-08-21 07:00:00 13.9 10 Sur 19 Sur 0 861.4 -0.3 89
2019-08-21 06:00:00 13.7 11 Sur 18 Sur 0 861.5 -0.3 88
2019-08-21 05:00:00 13.5 10 Sur 17 Sur 0 861.5 -0.2 88
2019-08-21 04:00:00 13.7 9 Sur 18 Sur 0 861.7 -0.1 88
2019-08-21 03:00:00 13.3 11 Sur 17 Sur 0 861.8 0.1 87
2019-08-21 02:00:00 13.6 12 Sur 23 Sur 0 861.7 0.6 84
2019-08-21 01:00:00 14.1 12 Sur 28 Sudeste 0 861.8 1 84
2019-08-21 00:00:00 13.9 10 Sur 20 Sur 0 861.7 1.5 81
2019-08-20 23:00:00 14.6 6 Sur 13 Sur 0 861.1 0.9 71
2019-08-20 22:00:00 16 0 Calma 15 Este 0 860.8 0.6 61
2019-08-20 21:00:00 18.2 3 Sudeste 13 Noroeste 0 860.2 -0.1 52
2019-08-20 20:00:00 21.5 3 Norte 17 Noroeste 0 860.2 -0.2 43
2019-08-20 19:00:00 23 7 Norte 19 Noroeste 0 860.2 -0.5 41
2019-08-20 18:00:00 23.6 6 Noroeste 22 Norte 0 860.3 -0.4 39
2019-08-20 17:00:00 23.2 5 Norte 21 Norte 0 860.4 -0.4 42
2019-08-20 16:00:00 22.4 7 Norte 23 Norte 0 860.7 -0.1 46
2019-08-20 15:00:00 21.2 6 Noroeste 23 Noroeste 0 860.7 0.4 53
2019-08-20 14:00:00 19.2 8 Norte 24 Noroeste 0 860.8 1 57
2019-08-20 13:00:00 17.7 6 Norte 21 Norte 0 860.8 1.1 67
2019-08-20 12:00:00 16.3 8 Norte 23 Noroeste 0 860.3 1.4 74
2019-08-20 11:00:00 14.5 7 Norte 21 Norte 0 859.8 1.2 84
2019-08-20 10:00:00 13.3 6 Norte 23 Norte 0 859.7 1.9 90
2019-08-20 09:00:00 10.3 5 Norte 22 Norte 0 858.9 1.3 99
2019-08-20 08:00:00 10.4 9 Norte 22 Norte 0 858.6 1.1 99
2019-08-20 07:00:00 11.5 5 Norte 16 Norte 0 857.8 0.5 93
2019-08-20 06:00:00 12 5 Norte 13 Norte 0 857.6 -0.2 89
2019-08-20 05:00:00 12.3 0 Calma 14 Sudeste 0 857.5 -0.7 88
2019-08-20 04:00:00 12.1 6 Sur 24 Sudeste 0.2 857.3 -0.9 92
2019-08-20 03:00:00 12.4 12 Sudeste 22 Sudeste 4.4 857.8 -0.6 91
2019-08-20 02:00:00 14.2 18 Sur 39 Sur 1 858.2 0.5 76
2019-08-20 01:00:00 15.2 7 Sur 13 Sudoeste 0 858.2 0.9 76
2019-08-20 00:00:00 14.8 3 Nordeste 10 Norte 0 858.4 1.1 87
2019-08-19 23:00:00 16.1 5 Norte 15 Oeste 0 857.7 0.1 74
2019-08-19 22:00:00 17.4 0 Calma 9 Norte 0 857.3 -0.6 65
2019-08-19 21:00:00 17.3 5 Norte 19 Norte 0 857.3 -0.4 71
2019-08-19 20:00:00 18.6 5 Norte 18 Noroeste 0 857.6 0.1 67
2019-08-19 19:00:00 19.5 6 Norte 22 Norte 0 857.9 0.4 63
2019-08-19 18:00:00 21.6 6 Norte 19 Norte 0 857.7 -0.1 57
2019-08-19 17:00:00 23 4 Norte 18 Sudoeste 0 857.5 -0.5 52
2019-08-19 16:00:00 24.3 4 Sudoeste 18 Este 0 857.5 -0.4 47
2019-08-19 15:00:00 22.3 5 Sur 16 Sudoeste 0 857.8 0.2 53
2019-08-19 14:00:00 21 11 Sur 20 Sur 0 858 0.7 56
2019-08-19 13:00:00 21 8 Sur 21 Sur 0 857.9 0.4 57
2019-08-19 12:00:00 20.7 9 Sur 24 Sur 0 857.6 0.3 61
2019-08-19 11:00:00 20.5 11 Sur 18 Sur 0 857.3 0.2 67
2019-08-19 10:00:00 16.3 0 Calma 8 Norte 0 857.5 0.4 81
2019-08-19 09:00:00 15 0 Calma 5 Nordeste 0 857.3 0.1 89
2019-08-19 08:00:00 13.1 3 Norte 8 Norte 0 857.1 -0.1 91
2019-08-19 07:00:00 13.8 3 Norte 8 Norte 0 857.1 -0.5 89
2019-08-19 06:00:00 14.2 4 Norte 9 Norte 0 857.2 -0.8 85
2019-08-19 05:00:00 14.7 3 Norte 9 Norte 0 857.2 -0.6 84
2019-08-19 04:00:00 15.3 3 Norte 6 Norte 0 857.6 -0.5 84
2019-08-19 03:00:00 15.3 4 Norte 9 Norte 0 858 0.3 84
2019-08-19 02:00:00 15.5 2 Norte 10 Nordeste 0 857.8 0 84
2019-08-19 01:00:00 15.5 2 Norte 13 Norte 0 858.1 0.9 82
2019-08-19 00:00:00 16.2 3 Norte 13 Norte 0 857.7 0.8 76
2019-08-18 23:00:00 17.6 3 Norte 22 Nordeste 0 857.8 1.4 66
2019-08-18 22:00:00 19.3 6 Norte 24 Noroeste 0 857.2 0.6 45
2019-08-18 21:00:00 21.9 5 Noroeste 26 Norte 0 856.9 0.1 40
2019-08-18 20:00:00 22.5 6 Norte 26 Norte 0 856.4 -0.2 38
2019-08-18 19:00:00 23.5 6 Noroeste 37 Oeste 0 856.6 0 37
2019-08-18 18:00:00 24.8 6 Noroeste 28 Norte 0 856.8 -0.2 38
2019-08-18 17:00:00 26.1 8 Noroeste 28 Oeste 0 856.6 -0.3 37
2019-08-18 16:00:00 28 8 Noroeste 27 Noroeste 0 856.6 -0.6 37
2019-08-18 15:00:00 26.9 5 Norte 24 Norte 0 857 -0.2 38
2019-08-18 14:00:00 26.6 7 Sur 23 Sur 0 856.9 0.1 34
2019-08-18 13:00:00 24.8 9 Sur 19 Sur 0 857.2 0.5 35
2019-08-18 12:00:00 24.5 2 Nordeste 14 Nordeste 0 857.2 0.7 45
2019-08-18 11:00:00 20.6 4 Norte 17 Norte 0 856.8 0.5 55
2019-08-18 10:00:00 17.6 7 Norte 14 Norte 0 856.7 0.5 59
2019-08-18 09:00:00 15.9 5 Norte 15 Norte 0 856.5 0.5 64
2019-08-18 08:00:00 14.2 5 Norte 12 Este 0 856.3 -0.4 60
2019-08-18 07:00:00 14.4 4 Norte 8 Norte 0 856.2 -0.4 50
2019-08-18 06:00:00 15.4 4 Norte 14 Este 0 856 -1 47
2019-08-18 05:00:00 17.9 4 Nordeste 22 Este 0 856.7 -0.7 42
2019-08-18 04:00:00 17.5 0 Calma 8 Nordeste 0 856.6 -1.2 42
2019-08-18 03:00:00 17.3 0 Calma 7 Nordeste 0 857 -0.6 42
2019-08-18 02:00:00 17.9 3 Norte 11 Nordeste 0 857.4 -0.3 41
2019-08-18 01:00:00 18.9 3 Norte 12 Norte 0 857.8 0.1 40
2019-08-18 00:00:00 19.1 2 Norte 8 Nordeste 0 857.6 0.5 39
2019-08-17 23:00:00 20.2 0 Calma 9 Este 0 857.7 0.5 38
2019-08-17 22:00:00 22.1 0 Calma 10 Norte 0 857.7 0.3 37
2019-08-17 21:00:00 24.6 3 Norte 18 Oeste 0 857.1 -0.4 35
2019-08-17 20:00:00 28.6 8 Oeste 28 Oeste 0 857.2 -0.7 30
2019-08-17 19:00:00 30.2 8 Sur 29 Sur 0 857.4 -1.2 26
2019-08-17 18:00:00 31 9 Sudoeste 37 Sur 0 857.5 -1.3 27
2019-08-17 17:00:00 29.1 14 Sur 30 Sudoeste 0 857.9 -1.5 29
2019-08-17 16:00:00 29.2 7 Sur 26 Sur 0 858.6 -1.1 31
2019-08-17 15:00:00 29.1 11 Sur 34 Sudoeste 0 858.8 -1.1 33
2019-08-17 14:00:00 28.2 13 Sur 27 Sur 0 859.4 -0.6 34
2019-08-17 13:00:00 27.4 12 Sur 26 Sur 0 859.7 0 35
2019-08-17 12:00:00 25.4 10 Sur 21 Sudoeste 0 859.9 0.3 37
2019-08-17 11:00:00 24.2 12 Sur 20 Sur 0 860 0.6 39
2019-08-17 10:00:00 22.8 6 Sur 12 Sur 0 859.7 0.3 42
2019-08-17 09:00:00 18.3 0 Calma 7 Norte 0 859.6 0.3 52
2019-08-17 08:00:00 15.5 3 Norte 8 Este 0 859.4 -0.3 52
2019-08-17 07:00:00 15.7 2 Este 8 Norte 0 859.4 -0.6 49
2019-08-17 06:00:00 15.7 3 Norte 8 Norte 0 859.3 -0.7 48
2019-08-17 05:00:00 17.1 3 Norte 18 Norte 0 859.7 -0.5 46
2019-08-17 04:00:00 17.6 6 Norte 20 Norte 0 860 -0.1 45
2019-08-17 03:00:00 18.7 2 Nordeste 18 Nordeste 0 860 -0.4 42
2019-08-17 02:00:00 17.6 2 Norte 10 Nordeste 0 860.2 0 45
2019-08-17 01:00:00 18.5 3 Norte 10 Norte 0 860.1 0.2 45
2019-08-17 00:00:00 18.7 4 Norte 7 Norte 0 860.4 1 47
2019-08-16 23:00:00 19.5 4 Norte 10 Norte 0 860.2 1.1 45
2019-08-16 22:00:00 21.7 4 Noroeste 18 Nordeste 0 859.9 0.8 42
2019-08-16 21:00:00 24 6 Norte 16 Norte 0 859.4 -0.1 39
2019-08-16 20:00:00 27.5 7 Noroeste 19 Oeste 0 859.1 -0.5 36
2019-08-16 19:00:00 29.4 6 Noroeste 26 Noroeste 0 859.1 -0.8 34
2019-08-16 18:00:00 29 6 Sur 24 Sur 0 859.5 -0.6 37
2019-08-16 17:00:00 26.8 8 Sudeste 29 Sudoeste 0 859.6 -0.9 39
2019-08-16 16:00:00 28.6 6 Sudoeste 32 Oeste 0 859.9 -1 35
2019-08-16 15:00:00 26.7 9 Sudoeste 28 Oeste 0 860.1 -1 37
2019-08-16 14:00:00 28.1 3 Sudeste 21 Sudoeste 0 860.5 -0.3 39
2019-08-16 13:00:00 26.9 5 Sur 18 Sur 0 860.9 0.2 41
2019-08-16 12:00:00 24.6 9 Sur 18 Sudoeste 0 861.1 0.2 45
2019-08-16 11:00:00 23.8 8 Sur 13 Sur 0 860.8 0.1 49
2019-08-16 10:00:00 22.5 4 Sur 7 Sur 0 860.7 0.4 55
2019-08-16 09:00:00 18.8 5 Sudeste 8 Sudeste 0 860.9 0.4 64
2019-08-16 08:00:00 14.7 3 Sur 5 Sur 0 860.7 -0.1 72
2019-08-16 07:00:00 14.9 4 Sur 8 Sudeste 0 860.3 -0.5 71
2019-08-16 06:00:00 15 5 Sur 10 Sudeste 0 860.5 -0.5 69
2019-08-16 05:00:00 16 6 Sudeste 15 Sur 0 860.8 -0.5 65
2019-08-16 04:00:00 16.3 5 Sudeste 7 Sudeste 0 860.8 -0.7 63
2019-08-16 03:00:00 16.2 4 Sudeste 7 Sur 0 861 -0.1 63
2019-08-16 02:00:00 17 0 Calma 8 Norte 0 861.3 -0.3 61
2019-08-16 01:00:00 16.7 5 Norte 10 Norte 0 861.5 0.3 62
2019-08-16 00:00:00 16.7 6 Norte 17 Noroeste 0 861.1 0.4 60
2019-08-15 23:00:00 18.6 4 Noroeste 21 Norte 0 861.6 1 56
2019-08-15 22:00:00 20 4 Noroeste 19 Noroeste 0 861.2 0.6 51
2019-08-15 21:00:00 21.7 4 Norte 15 Norte 0 860.7 -0.5 42
2019-08-15 20:00:00 25.5 4 Noroeste 17 Noroeste 0 860.6 -0.8 35
2019-08-15 19:00:00 27.4 5 Norte 24 Noroeste 0 860.6 -1 34
2019-08-15 18:00:00 28.4 5 Noroeste 22 Noroeste 0 861.2 -0.8 32
2019-08-15 17:00:00 28.3 5 Noroeste 21 Norte 0 861.4 -0.9 32
2019-08-15 16:00:00 26.6 7 Norte 26 Oeste 0 861.6 -0.9 34
2019-08-15 15:00:00 25.9 9 Norte 27 Nordeste 0 862 -0.6 38
2019-08-15 14:00:00 24.9 6 Norte 26 Norte 0 862.3 0.1 42
2019-08-15 13:00:00 24.7 4 Norte 21 Norte 0 862.5 0.4 50
2019-08-15 12:00:00 22.1 4 Norte 19 Norte 0 862.6 0.6 57
2019-08-15 11:00:00 22 2 Norte 15 Este 0 862.2 0.6 60
2019-08-15 10:00:00 18.8 4 Nordeste 15 Norte 0 862.1 0.5 68
2019-08-15 09:00:00 17.3 6 Norte 15 Nordeste 0 862 1.2 65
2019-08-15 08:00:00 15.6 2 Norte 19 Nordeste 0 861.6 0.6 63
2019-08-15 07:00:00 16.1 9 Nordeste 22 Nordeste 0 861.6 0.2 58
2019-08-15 06:00:00 15.5 4 Norte 15 Norte 0 860.8 -0.7 53
2019-08-15 05:00:00 15.6 4 Norte 14 Este 0 861 -0.6 49
2019-08-15 04:00:00 16.2 6 Noroeste 17 Noroeste 0 861.4 -0.4 49
2019-08-15 03:00:00 15.9 3 Norte 7 Norte 0 861.5 -0.6 49
2019-08-15 02:00:00 16.5 3 Norte 7 Norte 0 861.6 -0.4 46
2019-08-15 01:00:00 16.6 3 Norte 6 Norte 0 861.8 0.1 43
2019-08-15 00:00:00 16.6 2 Norte 8 Norte 0 862.1 0.9 41
2019-08-14 23:00:00 17.6 3 Norte 8 Norte 0 862 1 38
2019-08-14 22:00:00 18.5 3 Norte 9 Noroeste 0 861.7 0.8 35
2019-08-14 21:00:00 21.2 2 Norte 13 Norte 0 861.2 -0.2 31
2019-08-14 20:00:00 25.4 4 Norte 21 Oeste 0 861 -0.5 27
2019-08-14 19:00:00 27 4 Noroeste 19 Noroeste 0 860.9 -0.9 27
2019-08-14 18:00:00 26.9 6 Norte 29 Norte 0 861.4 -0.6 27
2019-08-14 17:00:00 27 7 Noroeste 21 Norte 0 861.5 -0.7 28
2019-08-14 16:00:00 26 6 Norte 22 Norte 0 861.8 -0.5 29
2019-08-14 15:00:00 25 5 Noroeste 25 Norte 0 862 -0.5 30
2019-08-14 14:00:00 23.9 6 Norte 22 Norte 0 862.2 0.3 32
2019-08-14 13:00:00 22.6 6 Norte 19 Nordeste 0 862.3 0.7 34
2019-08-14 12:00:00 22 4 Norte 19 Norte 0 862.5 1 36
2019-08-14 11:00:00 20.3 5 Norte 18 Nordeste 0 861.9 0.4 39
2019-08-14 10:00:00 18.1 5 Norte 11 Norte 0 861.6 0.5 43
2019-08-14 09:00:00 15.7 2 Sur 5 Sur 0 861.5 0.3 50
2019-08-14 08:00:00 11.3 2 Norte 7 Norte 0 861.5 0.5 50
2019-08-14 07:00:00 11.4 3 Norte 7 Norte 0 861.1 -0.3 48
2019-08-14 06:00:00 11.6 0 Calma 7 Este 0 861.2 -0.2 47
2019-08-14 05:00:00 11.8 0 Calma 8 Este 0 861 -0.7 46
2019-08-14 04:00:00 11.7 0 Calma 8 Nordeste 0 861.4 -0.3 45
2019-08-14 03:00:00 11.8 3 Norte 8 Noroeste 0 861.4 -0.2 43
2019-08-14 02:00:00 11.6 3 Norte 8 Norte 0 861.7 0.5 42
2019-08-14 01:00:00 11.8 3 Norte 9 Este 0 861.7 0.4 41
2019-08-14 00:00:00 14 4 Este 14 Norte 0 861.6 1 39
2019-08-13 23:00:00 12.9 3 Norte 18 Noroeste 0 861.2 0.8 41
2019-08-13 22:00:00 14.1 5 Norte 13 Norte 0 861.3 1.1 37
2019-08-13 21:00:00 16.1 4 Norte 19 Noroeste 0 860.6 0.2 33
2019-08-13 20:00:00 20.6 5 Norte 26 Norte 0 860.4 -0.2 28
2019-08-13 19:00:00 21.7 9 Norte 27 Norte 0 860.2 -0.6 27
2019-08-13 18:00:00 22.4 5 Norte 27 Norte 0 860.4 -0.5 26
2019-08-13 17:00:00 22.2 7 Norte 24 Noroeste 0 860.6 -0.7 26
2019-08-13 16:00:00 22.4 5 Noroeste 23 Oeste 0 860.8 -0.4 29
2019-08-13 15:00:00 21 4 Norte 27 Nordeste 0 860.9 -0.4 31
2019-08-13 14:00:00 19.9 6 Norte 25 Norte 0 861.3 0.3 34
2019-08-13 13:00:00 18.9 4 Norte 22 Norte 0 861.2 0.4 36
2019-08-13 12:00:00 17.1 7 Norte 21 Norte 0 861.3 0.8 42
2019-08-13 11:00:00 15.2 6 Norte 17 Norte 0 861 0.7 49
2019-08-13 10:00:00 14.5 5 Norte 12 Norte 0 860.8 0.9 46
2019-08-13 09:00:00 10.3 4 Norte 9 Norte 0 860.5 0.6 59
2019-08-13 08:00:00 7.9 3 Norte 6 Norte 0 860.3 0.1 64
2019-08-13 07:00:00 7.3 0 Calma 4 Nordeste 0 859.9 -0.4 69
2019-08-13 06:00:00 7.7 2 Este 8 Sudeste 0 859.9 -0.5 68
2019-08-13 05:00:00 8.8 5 Sudeste 9 Sudeste 0 860.2 -0.8 66
2019-08-13 04:00:00 9.4 4 Nordeste 17 Nordeste 0 860.3 -0.7 67
2019-08-13 03:00:00 10.2 8 Norte 19 Norte 0 860.4 -0.1 66
2019-08-13 02:00:00 9.9 4 Norte 17 Norte 0 861 0.5 66
2019-08-13 01:00:00 9.3 4 Norte 15 Norte 0 861 0.6 67
2019-08-13 00:00:00 10 6 Norte 19 Norte 0 860.5 0.1 61
2019-08-12 23:00:00 11.9 6 Norte 28 Noroeste 0 860.5 0.7 54
2019-08-12 22:00:00 11.8 5 Norte 17 Norte 0 860.4 0.9 46
2019-08-12 21:00:00 14 4 Norte 25 Noroeste 0 860.4 0.6 38
2019-08-12 20:00:00 17.8 5 Noroeste 23 Norte 0 859.8 -0.1 33
2019-08-12 19:00:00 17 5 Norte 23 Noroeste 0 859.5 -0.6 32
2019-08-12 18:00:00 19.5 6 Noroeste 30 Nordeste 0 859.8 -0.4 31
2019-08-12 17:00:00 20 5 Norte 32 Noroeste 0 859.9 -0.3 33
2019-08-12 16:00:00 18.7 8 Noroeste 30 Nordeste 0 860.1 0 35
2019-08-12 15:00:00 17.7 8 Norte 27 Norte 0 860.2 0.1 38
2019-08-12 14:00:00 16.6 8 Norte 36 Norte 0 860.2 0.4 42
2019-08-12 13:00:00 15.3 9 Norte 31 Nordeste 0 860.1 0.5 48
2019-08-12 12:00:00 13.3 12 Norte 31 Noroeste 0 860.1 1 57
2019-08-12 11:00:00 11.1 9 Norte 28 Noroeste 0 859.8 1.2 76
2019-08-12 10:00:00 7.9 12 Norte 30 Norte 0 859.6 1.2 98
2019-08-12 09:00:00 6.6 12 Norte 30 Norte 0 859.1 1 99
2019-08-12 08:00:00 6.5 9 Norte 31 Norte 0 858.6 0.1 99
2019-08-12 07:00:00 6.7 6 Norte 20 Nordeste 0 858.4 -0.1 99
2019-08-12 06:00:00 6.2 5 Norte 14 Norte 0 858.1 -1 98
2019-08-12 05:00:00 6.6 5 Norte 15 Norte 0 858.5 -0.7 92
2019-08-12 04:00:00 7.6 6 Norte 16 Norte 0 858.5 -0.7 89
2019-08-12 03:00:00 9.2 9 Noroeste 22 Noroeste 0 859.1 0.1 84
2019-08-12 02:00:00 9.6 5 Norte 20 Nordeste 0 859.2 0.2 73
2019-08-12 01:00:00 10.6 5 Norte 23 Nordeste 0 859.2 0.4 59
2019-08-12 00:00:00 11.8 5 Norte 18 Norte 0 859 0.8 49
2019-08-11 23:00:00 12.3 4 Norte 18 Norte 0 859 1.3 49
2019-08-11 22:00:00 14.4 3 Noroeste 18 Noroeste 0 858.8 1.1 49
2019-08-11 21:00:00 16.2 5 Norte 24 Noroeste 0 858.2 0.4 47
2019-08-11 20:00:00 18.7 7 Norte 25 Oeste 0 857.7 -0.1 42
2019-08-11 19:00:00 17.7 6 Noroeste 28 Noroeste 0 857.7 -0.1 49
2019-08-11 18:00:00 18.9 5 Norte 33 Noroeste 0 857.8 -0.1 49
2019-08-11 17:00:00 22.1 14 Oeste 35 Oeste 0 857.8 -0.2 46
2019-08-11 16:00:00 20.8 11 Noroeste 30 Norte 0 857.8 -0.2 47
2019-08-11 15:00:00 21.8 5 Oeste 29 Oeste 0 857.9 -0.2 46
2019-08-11 14:00:00 19.1 7 Norte 26 Nordeste 0 858 0.4 50
2019-08-11 13:00:00 19.9 4 Norte 17 Nordeste 0 858 0.6 51
2019-08-11 12:00:00 17.8 4 Noroeste 22 Sur 0 858.1 0.6 51
2019-08-11 11:00:00 19 9 Sur 20 Sur 0 857.6 0.4 47
2019-08-11 10:00:00 16 0 Calma 13 Norte 0 857.4 0.5 69
2019-08-11 09:00:00 12.1 7 Norte 14 Norte 0 857.5 -0.6 86
2019-08-11 08:00:00 11 5 Norte 13 Norte 0 857.2 -0.7 87
2019-08-11 07:00:00 11.9 4 Norte 25 Norte 0 856.9 -0.8 84
2019-08-11 06:00:00 13.9 7 Norte 27 Norte 0 858.1 0.1 65
2019-08-11 05:00:00 14.1 0 Calma 13 Norte 0 857.9 -0.5 64
2019-08-11 04:00:00 14.2 4 Norte 24 Oeste 0 857.7 -0.7 63
2019-08-11 03:00:00 13.4 4 Norte 9 Norte 0 858 -1 64
2019-08-11 02:00:00 13.1 2 Norte 14 Norte 0 858.4 -1 62
2019-08-11 01:00:00 14 4 Nordeste 12 Nordeste 0 858.4 -0.5 61
2019-08-11 00:00:00 14.6 0 Calma 8 Norte 0 859 -0.1 59
2019-08-10 23:00:00 16.1 0 Calma 10 Norte 0 859.4 0.5 56
2019-08-10 22:00:00 16.9 0 Calma 8 Norte 0 858.9 -0.1 49
2019-08-10 21:00:00 18.1 2 Nordeste 8 Sudeste 0 859.1 0 43
2019-08-10 20:00:00 20.4 5 Sudeste 22 Sur 0 858.9 -0.8 35
2019-08-10 19:00:00 22.4 13 Sur 32 Sur 0 859 -1.1 30
2019-08-10 18:00:00 24.6 12 Sur 26 Sur 0 859.1 -1.2 31
2019-08-10 17:00:00 24.3 3 Noroeste 14 Norte 0 859.7 -0.7 45
2019-08-10 16:00:00 24 3 Noroeste 15 Norte 0 860.1 -0.6 51
2019-08-10 15:00:00 19.4 5 Norte 13 Noroeste 0 860.3 -0.5 67
2019-08-10 14:00:00 18 5 Norte 16 Norte 0 860.4 -0.5 70
2019-08-10 13:00:00 16.9 5 Norte 17 Nordeste 0 860.7 -0.1 74
2019-08-10 12:00:00 16 7 Norte 18 Nordeste 0 860.8 0.6 76
2019-08-10 11:00:00 15 6 Norte 18 Nordeste 0 860.9 0.6 83
2019-08-10 10:00:00 14.1 5 Norte 12 Norte 0 860.8 0.5 87
2019-08-10 09:00:00 12 3 Norte 14 Norte 0 860.2 0.5 98
2019-08-10 08:00:00 10.8 5 Norte 14 Norte 0 860.3 0.5 99
2019-08-10 07:00:00 11.3 4 Norte 17 Este 0 860.3 0.5 99
2019-08-10 06:00:00 11.2 3 Norte 21 Norte 0 859.7 0 99
2019-08-10 05:00:00 11.2 3 Norte 13 Nordeste 0 859.8 0 98
2019-08-10 04:00:00 11.3 4 Norte 16 Norte 0 859.8 -0.4 96
2019-08-10 03:00:00 11.9 3 Nordeste 17 Noroeste 0 859.7 -0.3 92
2019-08-10 02:00:00 12 4 Noroeste 16 Noroeste 0 859.8 -0.3 92
2019-08-10 01:00:00 12.6 3 Norte 16 Nordeste 0 860.2 0.7 86
2019-08-10 00:00:00 15 7 Este 22 Este 0 860 0.4 76
2019-08-09 23:00:00 14.9 9 Oeste 22 Oeste 0 860.1 0.5 98
2019-08-09 22:00:00 15.2 4 Sudeste 17 Sudeste 0 859.5 0.3 97
2019-08-09 21:00:00 13.5 4 Norte 40 Este 0 859.6 1.5 98
2019-08-09 20:00:00 14.5 4 Nordeste 39 Noroeste 4 859.6 1.4 98
2019-08-09 19:00:00 17.3 9 Noroeste 38 Oeste 1.6 859.2 1 92
2019-08-09 18:00:00 21 8 Oeste 35 Oeste 0 858.1 -0.2 75
2019-08-09 17:00:00 22.4 17 Oeste 35 Oeste 0.2 858.2 -0.3 71
2019-08-09 16:00:00 23.2 8 Oeste 27 Sudoeste 0 858.2 -0.3 67
2019-08-09 15:00:00 22.4 6 Sudoeste 19 Sur 0 858.3 0.1 69
2019-08-09 14:00:00 22 5 Sur 15 Sudoeste 0 858.5 0.8 68
2019-08-09 13:00:00 22.2 7 Sur 23 Sur 0 858.5 1 66
2019-08-09 12:00:00 22.1 13 Sur 23 Sur 0 858.2 0.9 67
2019-08-09 11:00:00 21.1 9 Sur 23 Sudoeste 0 857.7 0.7 69
2019-08-09 10:00:00 19.6 9 Sur 19 Sur 0 857.5 0.9 73
2019-08-09 09:00:00 17 11 Sur 20 Sudeste 0 857.3 0.6 81
2019-08-09 08:00:00 15.2 9 Sur 15 Sur 0 857 0 76
2019-08-09 07:00:00 15.5 7 Sudeste 10 Sudeste 0 856.6 -0.3 74
2019-08-09 06:00:00 16.1 6 Sur 14 Sur 0 856.7 -0.4 68
2019-08-09 05:00:00 16.6 7 Sur 17 Sur 0 857 -0.5 63
2019-08-09 04:00:00 17.7 9 Sur 19 Sudeste 0 856.9 -0.6 62
2019-08-09 03:00:00 18.3 6 Sudeste 16 Sur 0 857.1 -0.4 60
2019-08-09 02:00:00 18.1 5 Sur 13 Este 0 857.5 0.1 61
2019-08-09 01:00:00 17.6 0 Calma 12 Sudeste 0 857.5 0.5 63
2019-08-09 00:00:00 19.4 6 Sudeste 10 Sudeste 0 857.5 1 63
2019-08-08 23:00:00 19.9 3 Este 12 Noroeste 0 857.4 1.4 61
2019-08-08 22:00:00 21.8 3 Sudoeste 19 Sur 0 857 0.8 56
2019-08-08 21:00:00 23.7 12 Sur 31 Sur 0 856.5 0.1 49
2019-08-08 20:00:00 24.1 16 Sur 34 Sur 0 856 -0.5 50
2019-08-08 19:00:00 24.4 17 Sur 29 Sur 0 856.2 -1 52
2019-08-08 18:00:00 24.4 10 Sur 27 Sudeste 0 856.4 -1.2 52
2019-08-08 17:00:00 24.9 11 Sur 27 Sur 0 856.5 -1.3 50
2019-08-08 16:00:00 26.2 13 Sur 35 Sur 0 857.2 -0.5 49
2019-08-08 15:00:00 25.5 10 Sur 25 Sudoeste 0 857.6 -0.1 50
2019-08-08 14:00:00 24.8 12 Sur 26 Sudoeste 0 857.8 0.1 52
2019-08-08 13:00:00 24.3 11 Sur 22 Sudoeste 0 857.7 0.1 57
2019-08-08 12:00:00 22.3 4 Sur 18 Sur 0 857.7 -0.1 64
2019-08-08 11:00:00 21 5 Sudeste 18 Sudoeste 0 857.7 0.3 68
2019-08-08 10:00:00 19.2 9 Sur 20 Sur 0 857.6 0.2 75
2019-08-08 09:00:00 16.2 0 Calma 12 Sudeste 0 857.8 0.6 76
2019-08-08 08:00:00 15 3 Nordeste 10 Sudeste 0 857.4 -0.2 76
2019-08-08 07:00:00 15 3 Norte 12 Este 0 857.4 -0.1 76
2019-08-08 06:00:00 15.1 3 Este 19 Este 0 857.2 -0.3 76
2019-08-08 05:00:00 15 5 Este 20 Este 0 857.6 -0.2 76
2019-08-08 04:00:00 15 0 Calma 10 Este 0.2 857.5 0 81
2019-08-08 03:00:00 15 3 Nordeste 14 Sur 0 857.5 -0.1 76
2019-08-08 02:00:00 14.6 3 Nordeste 10 Este 0 857.8 0.2 76
2019-08-08 01:00:00 14.8 0 Calma 7 Este 0 857.5 0.6 76
2019-08-08 00:00:00 15.4 4 Oeste 9 Oeste 0 857.6 0.9 76
2019-08-07 23:00:00 15.1 0 Calma 9 Sudeste 0 857.6 1 76
2019-08-07 22:00:00 16 5 Este 7 Sudeste 0 856.9 -0.1 74
2019-08-07 21:00:00 17.1 6 Sudoeste 13 Oeste 0 856.7 -0.3 72
2019-08-07 20:00:00 17 4 Sudeste 13 Sudeste 0 856.6 0.2 76
2019-08-07 19:00:00 16.5 3 Sudeste 9 Sudeste 0.2 857 -0.3 84
2019-08-07 18:00:00 16.4 5 Sudeste 23 Sur 0.6 857 0 76
2019-08-07 17:00:00 19.1 8 Sur 23 Sur 0 856.4 -0.6 60
2019-08-07 16:00:00 19 12 Sur 27 Sur 0 857.3 0.2 60
2019-08-07 15:00:00 20.4 10 Sur 26 Sur 0 857 0.1 59
2019-08-07 14:00:00 20.4 0 Calma 11 Este 0 857 0.7 60
2019-08-07 13:00:00 20.3 5 Noroeste 18 Oeste 0 857.1 1.4 63
2019-08-07 12:00:00 21.4 6 Oeste 19 Oeste 0 856.9 1.4 62
2019-08-07 11:00:00 19.4 4 Norte 12 Oeste 0 856.3 1.1 66
2019-08-07 10:00:00 18.6 5 Noroeste 17 Noroeste 0 855.7 1.1 68
2019-08-07 09:00:00 18 0 Calma 9 Este 0 855.5 1.4 67
2019-08-07 08:00:00 15.7 3 Norte 10 Norte 0 855.2 0.5 66
2019-08-07 07:00:00 15.8 4 Norte 7 Norte 0 854.6 -0.1 63
2019-08-07 06:00:00 16.4 3 Norte 13 Oeste 0 854.1 -0.6 61
2019-08-07 05:00:00 17.2 4 Noroeste 21 Nordeste 0 854.7 -0.3 60
2019-08-07 04:00:00 16.6 5 Norte 9 Norte 0 854.7 -1.4 60
2019-08-07 03:00:00 16.9 4 Norte 13 Noroeste 0 854.7 -1 59
2019-08-07 02:00:00 17.6 3 Norte 18 Norte 0 855 -0.8 58
2019-08-07 01:00:00 18.7 8 Norte 23 Noroeste 0 856.1 0.8 56
2019-08-07 00:00:00 18.6 3 Norte 10 Norte 0 855.7 0.6 54
2019-08-06 23:00:00 19.6 2 Norte 7 Norte 0 855.8 0.9 50
2019-08-06 22:00:00 21.3 2 Norte 9 Norte 0 855.3 0.4 46
2019-08-06 21:00:00 22.8 3 Norte 10 Noroeste 0 855.1 -0.3 42
2019-08-06 20:00:00 25.7 0 Calma 26 Sudeste 0 854.9 -1.1 35
2019-08-06 19:00:00 26.2 11 Sur 28 Sudoeste 0 854.9 -1.3 31
2019-08-06 18:00:00 28 9 Sur 26 Sur 0 855.4 -1.3 31
2019-08-06 17:00:00 27.5 14 Sur 28 Sur 0 856 -1.1 31
2019-08-06 16:00:00 28.8 12 Sur 27 Sudoeste 0 856.2 -1.3 31
2019-08-06 15:00:00 28.1 5 Sur 19 Sur 0 856.7 -0.8 35
2019-08-06 14:00:00 26.5 10 Sur 20 Sudoeste 0 857.1 -0.2 38
2019-08-06 13:00:00 26.1 11 Sur 23 Sur 0 857.5 0.3 38
2019-08-06 12:00:00 25.3 10 Sur 21 Sur 0 857.5 0.1 40
2019-08-06 11:00:00 24.4 9 Sur 22 Sur 0 857.3 -0.1 42
2019-08-06 10:00:00 22.9 6 Sur 11 Sur 0 857.2 0.3 49
2019-08-06 09:00:00 16.9 4 Norte 10 Norte 0 857.4 0.4 64
2019-08-06 08:00:00 14.2 6 Norte 15 Noroeste 0 857.4 0.4 65
2019-08-06 07:00:00 15.3 4 Norte 8 Norte 0 856.9 -0.7 60
2019-08-06 06:00:00 16 0 Calma 6 Norte 0 857 -0.7 57
2019-08-06 05:00:00 16.3 0 Calma 11 Nordeste 0 857 -0.9 56
2019-08-06 04:00:00 22.5 3 Norte 10 Norte 0 857.6 -0.1 53
2019-08-06 03:00:00 17.9 4 Nordeste 15 Nordeste 0 857.7 -0.3 52
2019-08-06 02:00:00 17.6 3 Norte 8 Nordeste 0 857.9 0.2 50
2019-08-06 01:00:00 18 3 Norte 9 Norte 0 857.7 0.4 45
2019-08-06 00:00:00 19 3 Norte 9 Norte 0 858 1.1 42
2019-08-05 23:00:00 20 4 Norte 12 Norte 0 857.7 1.1 39
2019-08-05 22:00:00 21.4 0 Calma 10 Sur 0 857.3 0.7 34
2019-08-05 21:00:00 25 0 Calma 24 Sur 0 856.9 0 31
2019-08-05 20:00:00 27.9 12 Sur 27 Sur 0 856.6 -0.6 29
2019-08-05 19:00:00 28.5 15 Sur 30 Sur 0 856.6 -1 29
2019-08-05 18:00:00 29.3 13 Sur 32 Sudoeste 0 856.9 -1.2 29
2019-08-05 17:00:00 29.1 13 Sur 32 Sur 0 857.2 -1.1 30
2019-08-05 16:00:00 28.8 8 Sur 33 Sur 0 857.6 -1 32
2019-08-05 15:00:00 28.1 9 Sudoeste 29 Sudoeste 0 858.1 -0.6 35
2019-08-05 14:00:00 28.1 5 Sur 24 Sudoeste 0 858.3 -0.4 37
2019-08-05 13:00:00 26.4 8 Sur 19 Sur 0 858.6 0.1 38
2019-08-05 12:00:00 25.8 6 Sur 13 Sur 0 858.7 0.3 41
2019-08-05 11:00:00 24.7 5 Sur 11 Sur 0 858.7 0.7 44
2019-08-05 10:00:00 23.3 2 Sur 7 Sur 0 858.5 0.1 48
2019-08-05 09:00:00 19.1 0 Calma 6 Norte 0 858.4 0.3 56
2019-08-05 08:00:00 15.1 4 Norte 6 Norte 0 858 -0.5 58
2019-08-05 07:00:00 15.4 3 Norte 7 Norte 0 858.4 -0.1 56
2019-08-05 06:00:00 16.1 3 Norte 13 Norte 0 858.1 -0.7 55
2019-08-05 05:00:00 16 3 Norte 6 Nordeste 0 858.5 -0.4 55
2019-08-05 04:00:00 16.4 3 Norte 6 Norte 0 858.5 -0.4 53
2019-08-05 03:00:00 16.9 2 Norte 9 Nordeste 0 858.8 0 53
2019-08-05 02:00:00 18.1 3 Norte 8 Nordeste 0 858.9 0 49
2019-08-05 01:00:00 18.8 3 Norte 8 Norte 0 858.9 0.6 47
2019-08-05 00:00:00 19.5 3 Norte 8 Nordeste 0 858.8 0.8 45
2019-08-04 23:00:00 20.1 2 Norte 7 Noroeste 0 858.9 1.5 40
2019-08-04 22:00:00 21.4 2 Norte 10 Este 0 858.3 0.8 31
2019-08-04 21:00:00 24.4 5 Sudeste 20 Sur 0 858 0.3 28
2019-08-04 20:00:00 27.2 10 Sur 23 Sur 0 857.4 -0.5 27
2019-08-04 19:00:00 28.3 13 Sur 27 Sur 0 857.5 -0.5 27
2019-08-04 18:00:00 29.1 10 Sur 28 Sudoeste 0 857.7 -0.5 26
2019-08-04 17:00:00 29.1 6 Sur 29 Sur 0 857.9 -0.5 27
2019-08-04 16:00:00 28.5 16 Sur 29 Sudoeste 0 858 -0.7 29
2019-08-04 15:00:00 28.3 12 Sur 35 Sudoeste 0 858.2 -0.5 30
2019-08-04 14:00:00 27.6 8 Sur 26 Sur 0 858.4 -0.1 33
2019-08-04 13:00:00 27.2 3 Sudeste 21 Sur 0 858.7 0.4 35
2019-08-04 12:00:00 25.4 12 Sur 23 Sur 0 858.7 0.7 38
2019-08-04 11:00:00 24.6 9 Sur 20 Sur 0 858.5 0.8 42
2019-08-04 10:00:00 21.4 0 Calma 9 Sur 0 858.3 0.6 54
2019-08-04 09:00:00 20 3 Sur 9 Sudeste 0 858 0.4 54
2019-08-04 08:00:00 15.4 3 Norte 9 Norte 0 857.7 0.2 60
2019-08-04 07:00:00 15.5 4 Norte 9 Nordeste 0 857.7 -0.1 58
2019-08-04 06:00:00 16.1 5 Norte 9 Norte 0 857.6 0 55
2019-08-04 05:00:00 17.2 3 Nordeste 10 Nordeste 0 857.5 -0.1 52
2019-08-04 04:00:00 20 3 Norte 18 Este 0 857.8 0.3 48
2019-08-04 03:00:00 19.2 3 Norte 22 Oeste 0 857.6 -0.2 42
2019-08-04 02:00:00 19.9 4 Norte 15 Norte 0 857.6 -0.2 38
2019-08-04 01:00:00 18.4 3 Norte 7 Norte 0 857.5 0.3 39
2019-08-04 00:00:00 18.6 5 Noroeste 9 Oeste 0 857.8 1.2 38
2019-08-03 23:00:00 19.6 3 Sudeste 17 Sudeste 0 857.8 1.3 33
2019-08-03 22:00:00 21.9 4 Sur 15 Sur 0 857.2 0.7 30
2019-08-03 21:00:00 24.7 9 Sur 23 Sur 0 856.6 -0.4 28
2019-08-03 20:00:00 27.3 11 Sur 28 Sur 0 856.5 -0.8 28
2019-08-03 19:00:00 28.3 12 Sur 27 Sur 0 856.5 -1.2 28
2019-08-03 18:00:00 29.3 11 Sur 33 Sudoeste 0 857 -1 28
2019-08-03 17:00:00 28.5 9 Sur 35 Sur 0 857.3 -0.9 29
2019-08-03 16:00:00 28.8 7 Sur 33 Sur 0 857.7 -0.7 31
2019-08-03 15:00:00 28.1 10 Sur 33 Sudoeste 0 858 -0.3 34
2019-08-03 14:00:00 28 9 Sur 28 Sur 0 858.2 -0.1 35
2019-08-03 13:00:00 26.6 10 Sur 21 Sur 0 858.4 0.1 37
2019-08-03 12:00:00 25.3 8 Sur 19 Sur 0 858.3 0.1 42
2019-08-03 11:00:00 22.6 10 Sur 18 Sur 0 858.3 0.1 51
2019-08-03 10:00:00 21 8 Sur 15 Sur 0 858.3 0.2 52
2019-08-03 09:00:00 18.4 6 Sudeste 13 Sudeste 0 858.2 0.6 58
2019-08-03 08:00:00 15.1 6 Sur 11 Sur 0 858.2 0.5 63
2019-08-03 07:00:00 14.7 8 Sur 12 Sur 0 858.1 0.2 60
2019-08-03 06:00:00 15.6 7 Sur 12 Sudeste 0 857.6 -0.4 56
2019-08-03 05:00:00 23.1 6 Sur 16 Sudeste 0 857.7 -0.6 49
2019-08-03 04:00:00 17.5 7 Sur 14 Sur 0 857.9 -0.4 49
2019-08-03 03:00:00 17.8 8 Sur 16 Sudeste 0 858 -0.1 46
2019-08-03 02:00:00 -- 7 Sur 15 Sur 0 858.3 -0.1 42
2019-08-03 01:00:00 20.1 5 Sur 19 Sudeste 0 858.3 0.1 38
2019-08-03 00:00:00 19.9 5 Este 12 Sudeste 0 858.1 0.1 39
2019-08-02 23:00:00 19.6 5 Norte 14 Nordeste 0 858.4 0.8 40
2019-08-02 22:00:00 21.4 3 Norte 13 Este 0 858.2 0.4 37
2019-08-02 21:00:00 24.6 3 Norte 21 Norte 0 858 -0.2 34
2019-08-02 20:00:00 28.6 3 Noroeste 15 Oeste 0 857.6 -0.9 30
2019-08-02 19:00:00 28.8 5 Oeste 13 Noroeste 0 857.8 -1 30
2019-08-02 18:00:00 28.9 3 Noroeste 16 Norte 0 858.2 -0.7 31
2019-08-02 17:00:00 29.3 2 Noroeste 21 Norte 0 858.5 -0.5 30
2019-08-02 16:00:00 28.5 6 Norte 22 Noroeste 0 858.8 -0.3 30
2019-08-02 15:00:00 28.5 0 Calma 17 Nordeste 0 858.9 -0.3 32
2019-08-02 14:00:00 27.9 4 Noroeste 21 Noroeste 0 859 0.1 33
2019-08-02 13:00:00 26.6 6 Norte 21 Norte 0 859.1 0.6 38
2019-08-02 12:00:00 24.8 3 Norte 15 Norte 0 859.2 1 41
2019-08-02 11:00:00 22.6 3 Norte 9 Noroeste 0 858.9 0.8 45
2019-08-02 10:00:00 21.8 2 Norte 5 Norte 0 858.5 0.5 46
2019-08-02 09:00:00 18.7 0 Calma 5 Sudeste 0 858.2 0.6 53
2019-08-02 08:00:00 14.6 3 Sudeste 5 Sur 0 858.1 0.5 57
2019-08-02 07:00:00 14.3 3 Sur 6 Sur 0 858 0.2 56
2019-08-02 06:00:00 15.6 2 Norte 8 Norte 0 857.6 -0.2 55
2019-08-02 05:00:00 15.7 3 Norte 9 Norte 0 857.6 -0.5 55
2019-08-02 04:00:00 15.3 4 Norte 9 Norte 0 857.8 -0.2 59
2019-08-02 03:00:00 16.2 3 Norte 13 Noroeste 0 857.8 -0.3 61
2019-08-02 02:00:00 16.5 3 Noroeste 7 Norte 0 858.1 0.1 64
2019-08-02 01:00:00 16.5 4 Norte 10 Norte 0 858 0.9 58
2019-08-02 00:00:00 16.4 5 Norte 8 Norte 0 858.1 1.6 47
2019-08-01 23:00:00 17.9 4 Norte 12 Norte 0 858 2 41
2019-08-01 22:00:00 20.3 4 Norte 25 Nordeste 0 857.1 0.9 37
2019-08-01 21:00:00 23.1 3 Noroeste 19 Noroeste 0 856.5 0.2 34
2019-08-01 20:00:00 25.8 6 Noroeste 22 Norte 0 856 -0.3 32
2019-08-01 19:00:00 26.6 9 Oeste 23 Oeste 0 856.2 -0.3 32
2019-08-01 18:00:00 28.3 9 Oeste 23 Oeste 0 856.3 -0.6 32
2019-08-01 17:00:00 27.8 8 Oeste 28 Sur 0 856.3 -0.4 34
2019-08-01 16:00:00 25.7 6 Noroeste 27 Sudoeste 0 856.5 0.1 34
2019-08-01 15:00:00 26.2 10 Sudoeste 27 Oeste 0 856.9 0.6 34
2019-08-01 14:00:00 25.2 8 Oeste 26 Noroeste 0 856.7 0.5 40
2019-08-01 13:00:00 22.7 3 Noroeste 16 Oeste 0 856.4 0.5 51
2019-08-01 12:00:00 22.3 5 Sur 16 Sur 0 856.3 0.4 57
2019-08-01 11:00:00 19.5 10 Sur 21 Sur 0 856.2 0.4 72
2019-08-01 10:00:00 17.4 11 Sur -- -- -- 855.9 0.3 81
2019-08-01 09:00:00 16 9 Sur 19 Sur 0 855.9 0.7 91
2019-08-01 08:00:00 14.7 6 Sur 19 Sur 0 855.8 0.6 93
2019-08-01 07:00:00 15.2 12 Sur 30 Sur 0 855.6 0.3 91
2019-08-01 06:00:00 15.7 20 Sur 35 Sur 0 855.2 -0.7 91
2019-08-01 05:00:00 16.1 20 Sur 37 Sur 0 855.2 -0.8 91
2019-08-01 04:00:00 16.7 20 Sur 33 Sur 0 855.3 -1.3 89
2019-08-01 03:00:00 17.5 20 Sur 33 Sur 0 855.9 -0.5 85
2019-08-01 02:00:00 18.5 15 Sur 29 Sur 0 856 -0.4 76
2019-08-01 01:00:00 18.6 18 Sur 32 Sur 0 856.6 0.6 81
2019-08-01 00:00:00 17.9 10 Sur 23 Sur 2.6 856.4 0.4 84
2019-07-31 23:00:00 21.2 11 Sur 22 Sur 0 856.4 0.3 58
2019-07-31 22:00:00 21.9 6 Sudeste 18 Sudeste 0 856 -0.2 46
2019-07-31 21:00:00 22.7 9 Sur 22 Sur 0 856 -0.7 42
2019-07-31 20:00:00 25.1 10 Sur 27 Sur 0 856.1 -1 40
2019-07-31 19:00:00 25.7 15 Sur 33 Sur 0 856.2 -1.2 39
2019-07-31 18:00:00 26.9 10 Sur 30 Sur 0 856.7 -0.9 39
2019-07-31 17:00:00 25.2 14 Sur 37 Sur 0 857.1 -0.7 41
2019-07-31 16:00:00 24.7 17 Sur 37 Sur 0 857.4 -0.7 42
2019-07-31 15:00:00 24.1 18 Sur 34 Sudoeste 0 857.6 -0.5 47
2019-07-31 14:00:00 23.2 14 Sur 27 Sur 0 857.8 -0.3 55
2019-07-31 13:00:00 21.6 17 Sur 30 Sur 0 858.1 0.1 59
2019-07-31 12:00:00 20.7 15 Sur 26 Sudoeste 0 858.1 -0.1 59
2019-07-31 11:00:00 18.9 13 Sur 24 Sur 0 858.1 -0.1 62
2019-07-31 10:00:00 16.6 13 Sur 23 Sur 0 858 -0.2 63
2019-07-31 09:00:00 14.5 13 Sur 20 Sur 0 858.2 0 71
2019-07-31 08:00:00 12.5 13 Sur 21 Sur 0 858.2 0.1 73
2019-07-31 07:00:00 12.2 13 Sur 19 Sur 0 858.2 -0.1 73
2019-07-31 06:00:00 11.9 7 Sur 17 Sur 0 858.2 -0.4 72
2019-07-31 05:00:00 12 8 Sur 13 Sur 0 858.1 -0.5 64
2019-07-31 04:00:00 12.1 7 Sudeste 16 Sur 0 858.3 -0.5 60
2019-07-31 03:00:00 11.9 8 Sur 12 Sur 0 858.6 -0.1 58
2019-07-31 02:00:00 11.4 3 Sudeste 7 Sudeste 0 858.6 0.1 59
2019-07-31 01:00:00 11.9 3 Nordeste 17 Nordeste 0 858.8 0.2 59
2019-07-31 00:00:00 14.2 6 Norte 24 Noroeste 0 858.7 0.7 54
2019-07-30 23:00:00 13.9 7 Norte 19 Norte 0 858.5 0.6 47
2019-07-30 22:00:00 14.5 4 Norte 13 Norte 0 858.6 1 45
2019-07-30 21:00:00 17.1 4 Norte 23 Norte 0 858 -0.2 41
2019-07-30 20:00:00 21.4 5 Noroeste 21 Noroeste 0 857.9 -0.3 35
2019-07-30 19:00:00 22.6 6 Norte 22 Norte 0 857.6 -1 34
2019-07-30 18:00:00 23.4 5 Norte 21 Norte 0 858.2 -0.5 33
2019-07-30 17:00:00 22.8 6 Norte 23 Norte 0 858.2 -0.8 32
2019-07-30 16:00:00 21.9 6 Norte 24 Noroeste 0 858.6 -0.4 33
2019-07-30 15:00:00 20.6 6 Norte 23 Norte 0 858.7 -0.3 35
2019-07-30 14:00:00 18.9 7 Norte 22 Norte 0 859 0.2 39
2019-07-30 13:00:00 17.8 5 Norte 24 Norte 0 859 0.2 46
2019-07-30 12:00:00 15.6 8 Norte 19 Norte 0 859 0.6 56
2019-07-30 11:00:00 13.9 7 Norte 20 Norte 0 858.8 1 64
2019-07-30 10:00:00 10.7 7 Norte 20 Norte 0 858.8 1 76
2019-07-30 09:00:00 9 6 Norte 16 Noroeste 0 858.4 0.8 85
2019-07-30 08:00:00 6.6 5 Norte 15 Norte 0 857.8 0.6 89
2019-07-30 07:00:00 6.9 3 Norte 14 Nordeste 0 857.8 0.4 83
2019-07-30 06:00:00 7.9 4 Norte 19 Norte 0 857.6 -0.2 76
2019-07-30 05:00:00 8.1 5 Norte 15 Nordeste 0 857.2 -0.1 74
2019-07-30 04:00:00 8.6 5 Norte 17 Norte 0 857.4 -0.1 66
2019-07-30 03:00:00 9.9 5 Norte 21 Nordeste 0 857.8 0.5 59
2019-07-30 02:00:00 11.3 6 Norte 19 Norte 0 857.3 0.3 53
2019-07-30 01:00:00 12.6 4 Norte 23 Norte 0 857.5 1.3 48
2019-07-30 00:00:00 14 5 Norte 23 Norte 0 857.3 1.6 46
2019-07-29 23:00:00 15.1 5 Norte 18 Norte 0 857 1.8 43
2019-07-29 22:00:00 16.3 0 Calma 15 Noroeste 0 856.2 1.2 40
2019-07-29 21:00:00 19.1 6 Noroeste 26 Norte 0 855.7 0.7 36
2019-07-29 20:00:00 22 7 Noroeste 31 Norte 0 855.2 0.2 35
2019-07-29 19:00:00 23.5 7 Noroeste 29 Noroeste 0 855 -0.1 38
2019-07-29 18:00:00 22.2 8 Noroeste 31 Norte 0 855 0.1 39
2019-07-29 17:00:00 24.9 7 Noroeste 30 Noroeste 0 855 0.1 34
2019-07-29 16:00:00 25.7 10 Noroeste 34 Oeste 0 855.1 0 30
2019-07-29 15:00:00 25.4 8 Oeste 22 Sudoeste 0 854.9 -0.4 34
2019-07-29 14:00:00 23.3 5 Norte 23 Norte 0 854.9 0.1 42
2019-07-29 13:00:00 22.9 5 Noroeste 21 Norte 0 855.1 0.5 45
2019-07-29 12:00:00 21 5 Norte 18 Nordeste 0 855.3 0.7 47
2019-07-29 11:00:00 19.3 4 Norte 14 Norte 0 854.8 0.4 51
2019-07-29 10:00:00 16.5 5 Norte 13 Norte 0 854.6 0.2 56
2019-07-29 09:00:00 14.2 5 Norte 15 Norte 0 854.6 0.6 60
2019-07-29 08:00:00 11.9 5 Norte 16 Nordeste 0 854.4 0.5 60
2019-07-29 07:00:00 13 2 Noroeste 26 Noroeste 0 854.4 0.5 49
2019-07-29 06:00:00 13.9 2 Nordeste 9 Nordeste 0 854 -0.2 45
2019-07-29 05:00:00 14.3 2 Norte 11 Este 0 853.9 -0.5 42
2019-07-29 04:00:00 13.9 2 Nordeste 8 Este 0 853.9 -0.5 42
2019-07-29 03:00:00 14.2 0 Calma 6 Sudeste 0 854.2 -0.5 40
2019-07-29 02:00:00 14.3 0 Calma 8 Este 0 854.4 -0.2 37
2019-07-29 01:00:00 14.3 0 Calma 8 Este 0 854.4 0.3 34
2019-07-29 00:00:00 14.3 0 Calma 7 Noroeste 0 854.7 0.9 34
2019-07-28 23:00:00 15.6 0 Calma 13 Nordeste 0 854.6 1.1 31
2019-07-28 22:00:00 16.6 2 Norte 14 Norte 0 854.1 0.8 28
2019-07-28 21:00:00 19.5 4 Norte 24 Noroeste 0 853.8 0.3 26
2019-07-28 20:00:00 22.4 6 Noroeste 22 Sudoeste 0 853.5 -0.3 26
2019-07-28 19:00:00 23.3 6 Noroeste 24 Noroeste 0 853.3 -0.9 25
2019-07-28 18:00:00 23.9 6 Noroeste 27 Noroeste 0 853.5 -0.6 24
2019-07-28 17:00:00 23.4 6 Noroeste 22 Noroeste 0 853.8 -0.5 24
2019-07-28 16:00:00 22.8 6 Noroeste 25 Oeste 0 854.2 -0.1 28
2019-07-28 15:00:00 22 5 Norte 28 Oeste 0 854.1 -0.4 33
2019-07-28 14:00:00 20 2 Noroeste 17 Noroeste 0 854.3 -0.3 35
2019-07-28 13:00:00 18 5 Noroeste 19 Norte 0 854.3 -0.3 41
2019-07-28 12:00:00 16.7 4 Norte 17 Norte 0 854.5 0.3 51
2019-07-28 11:00:00 14.3 6 Norte 17 Norte 0 854.6 0.6 63
2019-07-28 10:00:00 11.7 5 Norte 14 Norte 0 854.6 1.1 76
2019-07-28 09:00:00 10.3 0 Calma 6 Este 0 854.2 0.8 95
2019-07-28 08:00:00 6.2 3 Nordeste 5 Este 0 854 0.8 98
2019-07-28 07:00:00 6.3 0 Calma 10 Norte 0 853.5 0 99
2019-07-28 06:00:00 6.9 5 Norte 14 Norte 0 853.4 -0.1 99
2019-07-28 05:00:00 7.7 6 Norte 17 Noroeste 0 853.2 0 99
2019-07-28 04:00:00 7.6 5 Norte 17 Norte 0 853.5 0.1 99
2019-07-28 03:00:00 8.3 6 Norte 22 Norte 0 853.5 -0.2 99
2019-07-28 02:00:00 8.5 7 Norte 26 Nordeste 0 853.2 -0.5 99
2019-07-28 01:00:00 9.4 6 Norte 21 Norte 0 853.4 0.6 99
2019-07-28 00:00:00 10.7 4 Norte 21 Nordeste 0 853.7 1.4 96
2019-07-27 23:00:00 11.9 4 Norte 24 Nordeste 0 853.7 2.5 92
2019-07-26 12:00:00 19.6 5 Norte 19 Nordeste 0 855.4 0.2 76
2019-07-26 11:00:00 16.5 5 Norte 18 Norte 0 855.5 0.4 90
2019-07-26 10:00:00 16.1 5 Norte 19 Norte 0 855.6 0.4 93
2019-07-26 09:00:00 15.1 6 Norte 15 Norte 0 855.2 -0.2 96
2019-07-26 08:00:00 15.3 4 Norte 22 Oeste 0 855.1 -1.3 88
2019-07-26 07:00:00 16.3 4 Sur 10 Sudeste 0 855.2 -1.3 74
2019-07-26 06:00:00 15.7 3 Norte 18 Nordeste 0 855.4 -1 81
2019-07-26 05:00:00 16.5 4 Noroeste 17 Nordeste 0 856.4 -0.3 70
2019-07-26 04:00:00 18 3 Nordeste 26 Oeste 0 856.5 -0.5 63
2019-07-26 03:00:00 17.9 2 Norte 13 Norte 0 856.4 -0.9 57
2019-07-26 02:00:00 18.2 2 Norte 17 Norte 0 856.7 -0.5 52
2019-07-26 01:00:00 19.2 4 Norte 19 Sudoeste 0 857 0 48
2019-07-26 00:00:00 19.4 4 Norte 12 Norte 0 857.3 0.5 47